sensor_id;sensor_type;location;lat;lon;timestamp;pressure;altitude;pressure_sealevel;temperature;humidity
57038;BME280;59942;49.304;8.256;2023-12-20T00:01:08;100475.59;;;4.41;100.00
57038;BME280;59942;49.304;8.256;2023-12-20T00:03:35;100489.16;;;4.49;100.00
57038;BME280;59942;49.304;8.256;2023-12-20T00:06:08;100491.84;;;4.42;100.00
57038;BME280;59942;49.304;8.256;2023-12-20T00:08:35;100488.41;;;4.43;100.00
57038;BME280;59942;49.304;8.256;2023-12-20T00:11:04;100490.91;;;4.47;100.00
57038;BME280;59942;49.304;8.256;2023-12-20T00:13:33;100473.19;;;4.30;100.00
57038;BME280;59942;49.304;8.256;2023-12-20T00:16:02;100480.00;;;4.31;100.00
57038;BME280;59942;49.304;8.256;2023-12-20T00:18:29;100477.53;;;4.27;100.00
57038;BME280;59942;49.304;8.256;2023-12-20T00:20:56;100489.53;;;4.25;100.00
57038;BME280;59942;49.304;8.256;2023-12-20T00:23:24;100475.06;;;4.21;100.00
57038;BME280;59942;49.304;8.256;2023-12-20T00:25:53;100498.81;;;4.35;100.00
57038;BME280;59942;49.304;8.256;2023-12-20T00:28:22;100491.16;;;4.29;100.00
57038;BME280;59942;49.304;8.256;2023-12-20T00:30:56;100480.88;;;4.32;100.00
57038;BME280;59942;49.304;8.256;2023-12-20T00:33:25;100496.22;;;4.35;100.00
57038;BME280;59942;49.304;8.256;2023-12-20T00:35:51;100505.59;;;4.39;100.00
57038;BME280;59942;49.304;8.256;2023-12-20T00:38:20;100499.59;;;4.39;100.00
57038;BME280;59942;49.304;8.256;2023-12-20T00:40:47;100492.66;;;4.45;100.00
57038;BME280;59942;49.304;8.256;2023-12-20T00:43:13;100501.13;;;4.50;100.00
57038;BME280;59942;49.304;8.256;2023-12-20T00:45:42;100479.91;;;4.39;100.00
57038;BME280;59942;49.304;8.256;2023-12-20T00:48:11;100502.72;;;4.58;100.00
57038;BME280;59942;49.304;8.256;2023-12-20T00:50:40;100503.47;;;4.64;100.00
57038;BME280;59942;49.304;8.256;2023-12-20T00:53:06;100489.78;;;4.64;100.00
57038;BME280;59942;49.304;8.256;2023-12-20T00:55:35;100484.63;;;4.65;100.00
57038;BME280;59942;49.304;8.256;2023-12-20T00:58:02;100493.97;;;4.71;100.00
57038;BME280;59942;49.304;8.256;2023-12-20T01:00:31;100487.25;;;4.62;100.00
57038;BME280;59942;49.304;8.256;2023-12-20T01:02:57;100494.81;;;4.72;100.00
57038;BME280;59942;49.304;8.256;2023-12-20T01:05:26;100486.94;;;4.79;100.00
57038;BME280;59942;49.304;8.256;2023-12-20T01:07:53;100489.56;;;4.78;100.00
57038;BME280;59942;49.304;8.256;2023-12-20T01:10:19;100489.50;;;4.81;100.00
57038;BME280;59942;49.304;8.256;2023-12-20T01:12:46;100481.81;;;4.79;100.00
57038;BME280;59942;49.304;8.256;2023-12-20T01:15:15;100490.50;;;4.72;100.00
57038;BME280;59942;49.304;8.256;2023-12-20T01:17:43;100482.75;;;4.75;100.00
57038;BME280;59942;49.304;8.256;2023-12-20T01:20:13;100479.34;;;4.75;100.00
57038;BME280;59942;49.304;8.256;2023-12-20T01:22:40;100477.56;;;4.78;100.00
57038;BME280;59942;49.304;8.256;2023-12-20T01:25:06;100476.72;;;4.78;100.00
57038;BME280;59942;49.304;8.256;2023-12-20T01:27:33;100467.28;;;4.78;100.00
57038;BME280;59942;49.304;8.256;2023-12-20T01:30:04;100466.38;;;4.81;100.00
57038;BME280;59942;49.304;8.256;2023-12-20T01:32:33;100470.72;;;4.77;100.00
57038;BME280;59942;49.304;8.256;2023-12-20T01:35:02;100475.88;;;4.77;100.00
57038;BME280;59942;49.304;8.256;2023-12-20T01:37:29;100471.63;;;4.75;100.00
57038;BME280;59942;49.304;8.256;2023-12-20T01:39:58;100473.47;;;4.68;100.00
57038;BME280;59942;49.304;8.256;2023-12-20T01:42:25;100463.31;;;4.59;100.00
57038;BME280;59942;49.304;8.256;2023-12-20T01:44:51;100459.13;;;4.55;100.00
57038;BME280;59942;49.304;8.256;2023-12-20T01:47:20;100465.13;;;4.52;100.00
57038;BME280;59942;49.304;8.256;2023-12-20T01:49:49;100455.84;;;4.45;100.00
57038;BME280;59942;49.304;8.256;2023-12-20T01:52:17;100458.50;;;4.40;100.00
57038;BME280;59942;49.304;8.256;2023-12-20T01:54:47;100462.53;;;4.55;100.00
57038;BME280;59942;49.304;8.256;2023-12-20T01:57:14;100456.84;;;4.36;100.00
57038;BME280;59942;49.304;8.256;2023-12-20T01:59:44;100465.31;;;4.43;100.00
57038;BME280;59942;49.304;8.256;2023-12-20T02:02:11;100461.81;;;4.47;100.00
57038;BME280;59942;49.304;8.256;2023-12-20T02:04:39;100470.25;;;4.55;100.00
57038;BME280;59942;49.304;8.256;2023-12-20T02:07:07;100475.34;;;4.57;100.00
57038;BME280;59942;49.304;8.256;2023-12-20T02:09:36;100471.94;;;4.56;100.00
57038;BME280;59942;49.304;8.256;2023-12-20T02:12:05;100465.81;;;4.63;100.00
57038;BME280;59942;49.304;8.256;2023-12-20T02:14:34;100438.75;;;4.44;100.00
57038;BME280;59942;49.304;8.256;2023-12-20T02:17:00;100463.19;;;4.68;100.00
57038;BME280;59942;49.304;8.256;2023-12-20T02:19:27;100450.38;;;4.65;100.00
57038;BME280;59942;49.304;8.256;2023-12-20T02:22:11;100458.78;;;4.75;100.00
57038;BME280;59942;49.304;8.256;2023-12-20T02:24:38;100459.72;;;4.69;100.00
57038;BME280;59942;49.304;8.256;2023-12-20T02:27:08;100458.09;;;4.65;100.00
57038;BME280;59942;49.304;8.256;2023-12-20T02:29:39;100436.13;;;4.48;100.00
57038;BME280;59942;49.304;8.256;2023-12-20T02:32:05;100468.34;;;4.68;100.00
57038;BME280;59942;49.304;8.256;2023-12-20T02:34:32;100432.81;;;4.40;100.00
57038;BME280;59942;49.304;8.256;2023-12-20T02:36:58;100464.91;;;4.66;100.00
57038;BME280;59942;49.304;8.256;2023-12-20T02:39:25;100469.25;;;4.64;100.00
57038;BME280;59942;49.304;8.256;2023-12-20T02:41:54;100466.53;;;4.72;100.00
57038;BME280;59942;49.304;8.256;2023-12-20T02:44:20;100451.25;;;4.65;100.00
57038;BME280;59942;49.304;8.256;2023-12-20T02:46:47;100429.88;;;4.62;100.00
57038;BME280;59942;49.304;8.256;2023-12-20T02:49:15;100437.44;;;4.73;100.00
57038;BME280;59942;49.304;8.256;2023-12-20T02:51:44;100430.78;;;4.61;100.00
57038;BME280;59942;49.304;8.256;2023-12-20T02:54:13;100448.50;;;4.75;100.00
57038;BME280;59942;49.304;8.256;2023-12-20T02:56:40;100459.72;;;4.69;100.00
57038;BME280;59942;49.304;8.256;2023-12-20T02:59:09;100452.84;;;4.73;100.00
57038;BME280;59942;49.304;8.256;2023-12-20T03:01:41;100462.25;;;4.72;100.00
57038;BME280;59942;49.304;8.256;2023-12-20T03:04:10;100458.84;;;4.72;100.00
57038;BME280;59942;49.304;8.256;2023-12-20T03:06:37;100460.59;;;4.69;100.00
57038;BME280;59942;49.304;8.256;2023-12-20T03:09:04;100455.59;;;4.60;100.00
57038;BME280;59942;49.304;8.256;2023-12-20T03:11:30;100434.31;;;4.54;100.00
57038;BME280;59942;49.304;8.256;2023-12-20T03:13:59;100439.28;;;4.64;100.00
57038;BME280;59942;49.304;8.256;2023-12-20T03:16:28;100421.28;;;4.64;100.00
57038;BME280;59942;49.304;8.256;2023-12-20T03:19:03;100437.50;;;4.68;100.00
57038;BME280;59942;49.304;8.256;2023-12-20T03:21:30;100460.47;;;4.77;100.00
57038;BME280;59942;49.304;8.256;2023-12-20T03:23:59;100456.25;;;4.73;100.00
57038;BME280;59942;49.304;8.256;2023-12-20T03:26:26;100451.00;;;4.79;100.00
57038;BME280;59942;49.304;8.256;2023-12-20T03:28:52;100447.78;;;4.68;100.00
57038;BME280;59942;49.304;8.256;2023-12-20T03:31:18;100462.19;;;4.75;100.00
57038;BME280;59942;49.304;8.256;2023-12-20T03:33:46;100461.41;;;4.72;100.00
57038;BME280;59942;49.304;8.256;2023-12-20T03:36:12;100484.41;;;4.78;100.00
57038;BME280;59942;49.304;8.256;2023-12-20T03:38:39;100479.34;;;4.75;100.00
57038;BME280;59942;49.304;8.256;2023-12-20T03:41:06;100481.84;;;4.78;100.00
57038;BME280;59942;49.304;8.256;2023-12-20T03:43:35;100465.59;;;4.77;100.00
57038;BME280;59942;49.304;8.256;2023-12-20T03:46:03;100456.28;;;4.70;100.00
57038;BME280;59942;49.304;8.256;2023-12-20T03:48:31;100442.44;;;4.79;100.00
57038;BME280;59942;49.304;8.256;2023-12-20T03:50:57;100465.31;;;4.94;100.00
57038;BME280;59942;49.304;8.256;2023-12-20T03:53:25;100466.25;;;4.89;100.00
57038;BME280;59942;49.304;8.256;2023-12-20T03:55:53;100459.31;;;4.92;100.00
57038;BME280;59942;49.304;8.256;2023-12-20T03:58:20;100439.06;;;4.75;100.00
57038;BME280;59942;49.304;8.256;2023-12-20T04:00:47;100474.81;;;4.89;100.00
57038;BME280;59942;49.304;8.256;2023-12-20T04:03:16;100474.66;;;4.97;100.00
57038;BME280;59942;49.304;8.256;2023-12-20T04:05:45;100462.66;;;4.99;100.00
57038;BME280;59942;49.304;8.256;2023-12-20T04:08:11;100478.91;;;4.99;100.00
57038;BME280;59942;49.304;8.256;2023-12-20T04:10:38;100482.41;;;4.94;100.00
57038;BME280;59942;49.304;8.256;2023-12-20T04:13:04;100481.63;;;4.92;100.00
57038;BME280;59942;49.304;8.256;2023-12-20T04:15:31;100485.03;;;4.92;100.00
57038;BME280;59942;49.304;8.256;2023-12-20T04:17:58;100477.50;;;4.81;100.00
57038;BME280;59942;49.304;8.256;2023-12-20T04:20:29;100480.16;;;4.77;100.00
57038;BME280;59942;49.304;8.256;2023-12-20T04:22:58;100502.28;;;4.85;100.00
57038;BME280;59942;49.304;8.256;2023-12-20T04:25:24;100496.31;;;4.83;100.00
57038;BME280;59942;49.304;8.256;2023-12-20T04:27:51;100491.94;;;4.89;100.00
57038;BME280;59942;49.304;8.256;2023-12-20T04:30:22;100481.16;;;4.68;100.00
57038;BME280;59942;49.304;8.256;2023-12-20T04:32:49;100501.56;;;4.77;100.00
57038;BME280;59942;49.304;8.256;2023-12-20T04:35:15;100496.47;;;4.74;100.00
57038;BME280;59942;49.304;8.256;2023-12-20T04:37:44;100501.53;;;4.79;100.00
57038;BME280;59942;49.304;8.256;2023-12-20T04:40:11;100502.59;;;4.67;100.00
57038;BME280;59942;49.304;8.256;2023-12-20T04:42:40;100524.88;;;4.63;100.00
57038;BME280;59942;49.304;8.256;2023-12-20T04:45:09;100527.47;;;4.62;100.00
57038;BME280;59942;49.304;8.256;2023-12-20T04:47:36;100487.63;;;4.39;100.00
57038;BME280;59942;49.304;8.256;2023-12-20T04:50:03;100527.66;;;4.51;100.00
57038;BME280;59942;49.304;8.256;2023-12-20T04:52:30;100513.81;;;4.61;100.00
57038;BME280;59942;49.304;8.256;2023-12-20T04:54:59;100522.28;;;4.68;100.00
57038;BME280;59942;49.304;8.256;2023-12-20T04:57:28;100512.09;;;4.60;100.00
57038;BME280;59942;49.304;8.256;2023-12-20T04:59:55;100525.63;;;4.72;100.00
57038;BME280;59942;49.304;8.256;2023-12-20T05:02:21;100531.59;;;4.72;100.00
57038;BME280;59942;49.304;8.256;2023-12-20T05:04:48;100522.97;;;4.76;100.00
57038;BME280;59942;49.304;8.256;2023-12-20T05:07:15;100534.16;;;4.72;100.00
57038;BME280;59942;49.304;8.256;2023-12-20T05:09:44;100535.00;;;4.74;100.00
57038;BME280;59942;49.304;8.256;2023-12-20T05:12:13;100490.09;;;4.44;100.00
57038;BME280;59942;49.304;8.256;2023-12-20T05:14:39;100533.50;;;4.59;100.00
57038;BME280;59942;49.304;8.256;2023-12-20T05:17:08;100541.09;;;4.68;100.00
57038;BME280;59942;49.304;8.256;2023-12-20T05:19:35;100549.66;;;4.67;100.00
57038;BME280;59942;49.304;8.256;2023-12-20T05:22:02;100552.28;;;4.64;100.00
57038;BME280;59942;49.304;8.256;2023-12-20T05:24:29;100534.44;;;4.57;100.00
57038;BME280;59942;49.304;8.256;2023-12-20T05:26:55;100543.59;;;4.72;100.00
57038;BME280;59942;49.304;8.256;2023-12-20T05:29:22;100530.25;;;4.49;100.00
57038;BME280;59942;49.304;8.256;2023-12-20T05:31:50;100548.16;;;4.54;100.00
57038;BME280;59942;49.304;8.256;2023-12-20T05:34:17;100546.53;;;4.48;100.00
57038;BME280;59942;49.304;8.256;2023-12-20T05:36:43;100553.34;;;4.49;100.00
57038;BME280;59942;49.304;8.256;2023-12-20T05:39:12;100534.50;;;4.50;100.00
57038;BME280;59942;49.304;8.256;2023-12-20T05:41:41;100543.97;;;4.47;100.00
57038;BME280;59942;49.304;8.256;2023-12-20T05:44:08;100556.53;;;4.67;100.00
57038;BME280;59942;49.304;8.256;2023-12-20T05:46:34;100567.84;;;4.52;100.00
57038;BME280;59942;49.304;8.256;2023-12-20T05:49:03;100572.31;;;4.38;100.00
57038;BME280;59942;49.304;8.256;2023-12-20T05:51:34;100575.09;;;4.25;100.00
57038;BME280;59942;49.304;8.256;2023-12-20T05:54:01;100598.97;;;4.32;100.00
57038;BME280;59942;49.304;8.256;2023-12-20T05:56:27;100605.78;;;4.33;100.00
57038;BME280;59942;49.304;8.256;2023-12-20T05:58:54;100606.63;;;4.33;100.00
57038;BME280;59942;49.304;8.256;2023-12-20T06:01:20;100599.63;;;4.46;100.00
57038;BME280;59942;49.304;8.256;2023-12-20T06:03:47;100603.06;;;4.44;100.00
57038;BME280;59942;49.304;8.256;2023-12-20T06:06:16;100610.72;;;4.48;100.00
57038;BME280;59942;49.304;8.256;2023-12-20T06:08:44;100620.97;;;4.48;100.00
57038;BME280;59942;49.304;8.256;2023-12-20T06:11:10;100633.88;;;4.45;100.00
57038;BME280;59942;49.304;8.256;2023-12-20T06:13:39;100637.38;;;4.38;100.00
57038;BME280;59942;49.304;8.256;2023-12-20T06:16:06;100638.25;;;4.37;100.00
57038;BME280;59942;49.304;8.256;2023-12-20T06:18:38;100636.47;;;4.44;100.00
57038;BME280;59942;49.304;8.256;2023-12-20T06:21:04;100633.91;;;4.42;100.00
57038;BME280;59942;49.304;8.256;2023-12-20T06:23:34;100640.63;;;4.51;100.00
57038;BME280;59942;49.304;8.256;2023-12-20T06:26:00;100639.03;;;4.44;100.00
57038;BME280;59942;49.304;8.256;2023-12-20T06:28:27;100649.03;;;4.64;100.00
57038;BME280;59942;49.304;8.256;2023-12-20T06:30:53;100648.06;;;4.71;100.00
57038;BME280;59942;49.304;8.256;2023-12-20T06:33:24;100620.06;;;4.52;100.00
57038;BME280;59942;49.304;8.256;2023-12-20T06:35:50;100661.84;;;4.65;100.00
57038;BME280;59942;49.304;8.256;2023-12-20T06:38:18;100608.44;;;4.25;100.00
57038;BME280;59942;49.304;8.256;2023-12-20T06:40:47;100659.31;;;4.62;100.00
57038;BME280;59942;49.304;8.256;2023-12-20T06:43:14;100670.59;;;4.50;100.00
57038;BME280;59942;49.304;8.256;2023-12-20T06:46:00;100676.56;;;4.52;100.00
57038;BME280;59942;49.304;8.256;2023-12-20T06:48:29;100678.41;;;4.43;100.00
57038;BME280;59942;49.304;8.256;2023-12-20T06:50:55;100677.44;;;4.50;100.00
57038;BME280;59942;49.304;8.256;2023-12-20T06:53:24;100682.66;;;4.45;100.00
57038;BME280;59942;49.304;8.256;2023-12-20T06:55:51;100677.59;;;4.36;100.00
57038;BME280;59942;49.304;8.256;2023-12-20T06:58:17;100683.53;;;4.43;100.00
57038;BME280;59942;49.304;8.256;2023-12-20T07:00:44;100652.81;;;4.35;100.00
57038;BME280;59942;49.304;8.256;2023-12-20T07:03:10;100681.75;;;4.49;100.00
57038;BME280;59942;49.304;8.256;2023-12-20T07:05:37;100676.59;;;4.51;100.00
57038;BME280;59942;49.304;8.256;2023-12-20T07:08:04;100670.56;;;4.54;100.00
57038;BME280;59942;49.304;8.256;2023-12-20T07:10:31;100648.53;;;4.35;100.00
57038;BME280;59942;49.304;8.256;2023-12-20T07:12:57;100673.25;;;4.44;100.00
57038;BME280;59942;49.304;8.256;2023-12-20T07:15:26;100670.72;;;4.40;100.00
57038;BME280;59942;49.304;8.256;2023-12-20T07:17:58;100665.75;;;4.26;100.00
57038;BME280;59942;49.304;8.256;2023-12-20T07:20:27;100667.44;;;4.28;100.00
57038;BME280;59942;49.304;8.256;2023-12-20T07:22:56;100667.47;;;4.27;100.00
57038;BME280;59942;49.304;8.256;2023-12-20T07:25:25;100674.34;;;4.22;100.00
57038;BME280;59942;49.304;8.256;2023-12-20T07:27:54;100682.69;;;4.42;100.00
57038;BME280;59942;49.304;8.256;2023-12-20T07:30:21;100686.28;;;4.27;100.00
57038;BME280;59942;49.304;8.256;2023-12-20T07:32:47;100643.78;;;4.03;100.00
57038;BME280;59942;49.304;8.256;2023-12-20T07:35:16;100682.97;;;4.17;100.00
57038;BME280;59942;49.304;8.256;2023-12-20T07:37:48;100694.88;;;4.25;100.00
57038;BME280;59942;49.304;8.256;2023-12-20T07:40:14;100678.03;;;3.99;100.00
57038;BME280;59942;49.304;8.256;2023-12-20T07:42:43;100695.78;;;4.19;100.00
57038;BME280;59942;49.304;8.256;2023-12-20T07:45:10;100693.34;;;4.08;100.00
57038;BME280;59942;49.304;8.256;2023-12-20T07:47:39;100702.72;;;4.11;100.00
57038;BME280;59942;49.304;8.256;2023-12-20T07:50:07;100692.66;;;3.91;100.00
57038;BME280;59942;49.304;8.256;2023-12-20T07:52:34;100719.16;;;3.94;100.00
57038;BME280;59942;49.304;8.256;2023-12-20T07:55:00;100725.09;;;3.98;100.00
57038;BME280;59942;49.304;8.256;2023-12-20T07:57:32;100715.75;;;3.89;100.00
57038;BME280;59942;49.304;8.256;2023-12-20T08:00:01;100708.94;;;3.87;100.00
57038;BME280;59942;49.304;8.256;2023-12-20T08:02:33;100701.28;;;3.82;100.00
57038;BME280;59942;49.304;8.256;2023-12-20T08:04:59;100721.78;;;3.85;100.00
57038;BME280;59942;49.304;8.256;2023-12-20T08:07:25;100726.00;;;3.91;100.00
57038;BME280;59942;49.304;8.256;2023-12-20T08:09:52;100724.25;;;3.93;100.00
57038;BME280;59942;49.304;8.256;2023-12-20T08:12:23;100726.78;;;3.99;100.00
57038;BME280;59942;49.304;8.256;2023-12-20T08:14:53;100737.72;;;4.16;100.00
57038;BME280;59942;49.304;8.256;2023-12-20T08:17:19;100736.78;;;4.25;100.00
57038;BME280;59942;49.304;8.256;2023-12-20T08:19:48;100732.44;;;4.33;100.00
57038;BME280;59942;49.304;8.256;2023-12-20T08:22:15;100746.00;;;4.43;100.00
57038;BME280;59942;49.304;8.256;2023-12-20T08:24:42;100744.19;;;4.51;100.00
57038;BME280;59942;49.304;8.256;2023-12-20T08:27:13;100748.34;;;4.62;100.00
57038;BME280;59942;49.304;8.256;2023-12-20T08:29:40;100750.00;;;4.67;100.00
57038;BME280;59942;49.304;8.256;2023-12-20T08:32:06;100739.66;;;4.72;100.00
57038;BME280;59942;49.304;8.256;2023-12-20T08:34:37;100747.19;;;4.87;100.00
57038;BME280;59942;49.304;8.256;2023-12-20T08:37:05;100746.28;;;4.92;100.00
57038;BME280;59942;49.304;8.256;2023-12-20T08:39:31;100754.72;;;5.01;100.00
57038;BME280;59942;49.304;8.256;2023-12-20T08:41:59;100743.50;;;5.04;100.00
57038;BME280;59942;49.304;8.256;2023-12-20T08:44:26;100748.47;;;5.18;100.00
57038;BME280;59942;49.304;8.256;2023-12-20T08:46:52;100751.88;;;5.21;100.00
57038;BME280;59942;49.304;8.256;2023-12-20T08:49:19;100740.78;;;5.16;100.00
57038;BME280;59942;49.304;8.256;2023-12-20T08:51:46;100732.94;;;5.24;100.00
57038;BME280;59942;49.304;8.256;2023-12-20T08:54:13;100742.22;;;5.36;100.00
57038;BME280;59942;49.304;8.256;2023-12-20T08:56:39;100755.53;;;5.61;100.00
57038;BME280;59942;49.304;8.256;2023-12-20T08:59:06;100709.66;;;5.35;100.00
57038;BME280;59942;49.304;8.256;2023-12-20T09:01:32;100741.50;;;5.82;100.00
57038;BME280;59942;49.304;8.256;2023-12-20T09:04:01;100744.84;;;5.86;100.00
57038;BME280;59942;49.304;8.256;2023-12-20T09:06:28;100744.75;;;5.90;100.00
57038;BME280;59942;49.304;8.256;2023-12-20T09:08:56;100740.34;;;6.00;100.00
57038;BME280;59942;49.304;8.256;2023-12-20T09:11:23;100750.50;;;6.06;100.00
57038;BME280;59942;49.304;8.256;2023-12-20T09:13:50;100728.69;;;6.28;99.22
57038;BME280;59942;49.304;8.256;2023-12-20T09:16:19;100742.47;;;6.25;98.31
57038;BME280;59942;49.304;8.256;2023-12-20T09:18:45;100737.88;;;6.39;95.94
57038;BME280;59942;49.304;8.256;2023-12-20T09:21:12;100676.88;;;5.96;97.57
57038;BME280;59942;49.304;8.256;2023-12-20T09:23:39;100749.66;;;6.53;97.41
57038;BME280;59942;49.304;8.256;2023-12-20T09:26:08;100740.03;;;6.61;99.90
57038;BME280;59942;49.304;8.256;2023-12-20T09:28:34;100746.06;;;6.60;96.02
57038;BME280;59942;49.304;8.256;2023-12-20T09:31:06;100743.50;;;6.62;94.90
57038;BME280;59942;49.304;8.256;2023-12-20T09:33:33;100744.06;;;6.74;94.34
57038;BME280;59942;49.304;8.256;2023-12-20T09:36:02;100749.38;;;6.67;94.70
57038;BME280;59942;49.304;8.256;2023-12-20T09:38:29;100759.56;;;6.73;93.63
57038;BME280;59942;49.304;8.256;2023-12-20T09:40:56;100761.28;;;6.72;93.92
57038;BME280;59942;49.304;8.256;2023-12-20T09:43:26;100765.19;;;6.92;95.73
57038;BME280;59942;49.304;8.256;2023-12-20T09:46:01;100757.50;;;6.89;94.77
57038;BME280;59942;49.304;8.256;2023-12-20T09:48:32;100769.03;;;6.72;98.04
57038;BME280;59942;49.304;8.256;2023-12-20T09:51:01;100769.28;;;6.58;97.82
57038;BME280;59942;49.304;8.256;2023-12-20T09:53:32;100773.69;;;6.53;97.09
57038;BME280;59942;49.304;8.256;2023-12-20T09:56:05;100766.38;;;6.32;94.60
57038;BME280;59942;49.304;8.256;2023-12-20T09:58:32;100775.22;;;6.18;100.00
57038;BME280;59942;49.304;8.256;2023-12-20T10:01:00;100769.41;;;6.07;99.24
57038;BME280;59942;49.304;8.256;2023-12-20T10:03:27;100770.25;;;6.07;97.55
57038;BME280;59942;49.304;8.256;2023-12-20T10:05:59;100762.56;;;6.04;96.84
57038;BME280;59942;49.304;8.256;2023-12-20T10:08:27;100758.34;;;6.00;96.49
57038;BME280;59942;49.304;8.256;2023-12-20T10:10:54;100749.97;;;5.87;97.39
57038;BME280;59942;49.304;8.256;2023-12-20T10:13:21;100734.38;;;5.98;98.07
57038;BME280;59942;49.304;8.256;2023-12-20T10:15:50;100650.53;;;5.83;96.76
57038;BME280;59942;49.304;8.256;2023-12-20T10:18:22;100732.81;;;6.78;95.20
57038;BME280;59942;49.304;8.256;2023-12-20T10:21:04;100733.97;;;7.04;93.96
57038;BME280;59942;49.304;8.256;2023-12-20T10:23:32;100737.56;;;6.97;94.38
57038;BME280;59942;49.304;8.256;2023-12-20T10:25:59;100724.97;;;6.41;93.99
57038;BME280;59942;49.304;8.256;2023-12-20T10:28:28;100734.38;;;6.43;96.38
57038;BME280;59942;49.304;8.256;2023-12-20T10:30:59;100733.06;;;6.24;96.54
57038;BME280;59942;49.304;8.256;2023-12-20T10:33:27;100720.25;;;6.19;94.10
57038;BME280;59942;49.304;8.256;2023-12-20T10:35:55;100740.88;;;6.18;97.28
57038;BME280;59942;49.304;8.256;2023-12-20T10:38:22;100741.19;;;5.99;99.62
57038;BME280;59942;49.304;8.256;2023-12-20T10:40:54;100736.88;;;6.03;96.40
57038;BME280;59942;49.304;8.256;2023-12-20T10:43:22;100735.91;;;6.08;95.58
57038;BME280;59942;49.304;8.256;2023-12-20T10:45:50;100737.97;;;5.88;97.01
57038;BME280;59942;49.304;8.256;2023-12-20T10:48:16;100733.53;;;5.95;100.00
57038;BME280;59942;49.304;8.256;2023-12-20T10:50:44;100715.03;;;5.74;97.29
57038;BME280;59942;49.304;8.256;2023-12-20T10:53:12;100721.94;;;5.72;99.53
57038;BME280;59942;49.304;8.256;2023-12-20T10:55:39;100745.75;;;5.83;98.84
57038;BME280;59942;49.304;8.256;2023-12-20T10:58:07;100741.53;;;5.79;96.53
57038;BME280;59942;49.304;8.256;2023-12-20T11:00:45;100746.78;;;5.73;98.17
57038;BME280;59942;49.304;8.256;2023-12-20T11:03:17;100741.53;;;5.78;99.45
57038;BME280;59942;49.304;8.256;2023-12-20T11:05:53;100637.81;;;5.26;97.82
57038;BME280;59942;49.304;8.256;2023-12-20T11:08:32;100725.28;;;5.76;98.97
57038;BME280;59942;49.304;8.256;2023-12-20T11:11:18;100673.41;;;5.52;100.00
57038;BME280;59942;49.304;8.256;2023-12-20T11:14:03;100709.81;;;5.77;99.01
57038;BME280;59942;49.304;8.256;2023-12-20T11:16:32;100709.78;;;5.80;99.72
57038;BME280;59942;49.304;8.256;2023-12-20T11:19:17;100716.59;;;5.83;100.00
57038;BME280;59942;49.304;8.256;2023-12-20T11:21:46;100708.19;;;5.73;98.97
57038;BME280;59942;49.304;8.256;2023-12-20T11:24:15;100718.44;;;5.74;100.00
57038;BME280;59942;49.304;8.256;2023-12-20T11:26:47;100651.44;;;5.31;98.40
57038;BME280;59942;49.304;8.256;2023-12-20T11:29:31;100658.38;;;5.27;98.25
57038;BME280;59942;49.304;8.256;2023-12-20T11:34:47;100704.13;;;5.60;98.75
57038;BME280;59942;49.304;8.256;2023-12-20T11:37:13;100711.66;;;5.72;98.01
57038;BME280;59942;49.304;8.256;2023-12-20T11:39:40;100701.28;;;5.77;99.24
57038;BME280;59942;49.304;8.256;2023-12-20T11:42:07;100653.84;;;5.40;99.48
57038;BME280;59942;49.304;8.256;2023-12-20T11:44:34;100703.91;;;5.73;98.54
57038;BME280;59942;49.304;8.256;2023-12-20T11:47:03;100696.16;;;5.75;98.12
57038;BME280;59942;49.304;8.256;2023-12-20T11:49:32;100691.91;;;5.72;98.83
57038;BME280;59942;49.304;8.256;2023-12-20T11:51:59;100691.84;;;5.76;98.10
57038;BME280;59942;49.304;8.256;2023-12-20T11:54:26;100683.41;;;5.67;99.53
57038;BME280;59942;49.304;8.256;2023-12-20T11:56:55;100690.22;;;5.70;99.71
57038;BME280;59942;49.304;8.256;2023-12-20T11:59:22;100677.81;;;5.44;100.00
57038;BME280;59942;49.304;8.256;2023-12-20T12:01:50;100667.44;;;5.48;100.00
57038;BME280;59942;49.304;8.256;2023-12-20T12:04:24;100694.69;;;5.59;100.00
57038;BME280;59942;49.304;8.256;2023-12-20T12:06:50;100675.94;;;5.53;100.00
57038;BME280;59942;49.304;8.256;2023-12-20T12:09:17;100688.75;;;5.56;100.00
57038;BME280;59942;49.304;8.256;2023-12-20T12:11:43;100681.00;;;5.58;98.85
57038;BME280;59942;49.304;8.256;2023-12-20T12:14:10;100649.63;;;5.37;100.00
57038;BME280;59942;49.304;8.256;2023-12-20T12:16:41;100687.88;;;5.57;100.00
57038;BME280;59942;49.304;8.256;2023-12-20T12:19:22;100628.56;;;5.15;99.77
57038;BME280;59942;49.304;8.256;2023-12-20T12:22:09;100681.84;;;5.59;100.00
57038;BME280;59942;49.304;8.256;2023-12-20T12:24:44;100674.16;;;5.57;99.69
57038;BME280;59942;49.304;8.256;2023-12-20T12:27:12;100667.97;;;5.67;99.63
57038;BME280;59942;49.304;8.256;2023-12-20T12:29:39;100646.13;;;5.43;99.61
57038;BME280;59942;49.304;8.256;2023-12-20T12:32:07;100668.16;;;5.56;100.00
57038;BME280;59942;49.304;8.256;2023-12-20T12:34:37;100674.19;;;5.55;98.12
57038;BME280;59942;49.304;8.256;2023-12-20T12:37:04;100674.13;;;5.59;99.98
57038;BME280;59942;49.304;8.256;2023-12-20T12:39:33;100677.44;;;5.65;99.87
57038;BME280;59942;49.304;8.256;2023-12-20T12:42:02;100687.72;;;5.67;98.69
57038;BME280;59942;49.304;8.256;2023-12-20T12:44:31;100690.38;;;5.62;100.00
57038;BME280;59942;49.304;8.256;2023-12-20T12:47:00;100686.09;;;5.61;100.00
57038;BME280;59942;49.304;8.256;2023-12-20T12:49:28;100677.31;;;5.73;98.66
57038;BME280;59942;49.304;8.256;2023-12-20T12:51:55;100634.19;;;5.39;98.94
57038;BME280;59942;49.304;8.256;2023-12-20T12:54:24;100685.00;;;5.74;100.00
57038;BME280;59942;49.304;8.256;2023-12-20T12:56:55;100686.91;;;5.63;98.30
57038;BME280;59942;49.304;8.256;2023-12-20T12:59:21;100675.59;;;5.73;96.25
57038;BME280;59942;49.304;8.256;2023-12-20T13:01:48;100681.34;;;5.88;94.03